Port Chester, NY (10573)

5:45 AM EDT en Octubre 31, 2014 (GMT -0400)
N1TKS/BYRAM, CT | Change Station
CLOSE
Current Station
Estación meteorológica personal
Location: BYRAM, CT
Altura: 82 ft
Estaciones meteorológicas cercanas

Alt 82 ft 41.01 °N, 73.65 °W | Updated 4 seconds ago

Parcialmente nublado
Parcialmente nublado
42.5 ° F
Sensación térmica 41 ° F
N
3.5
Viento Variable Viento desde ONO
Gusts 3.5 mph

Hoy
Alta -- | Baja -- ° F
--% Posibilidad de precipitaciones
Ayer
Alta -- | Baja -- ° F
Precip. -- pul
7:24 AM 5:51 PM
Cuarto creciente, 53% visible
Presión 29.99 pul
Visibilidad 10.0 Millas
Nubes Despejado
Vientos helados 41 ° F
Punto de rocío 34 ° F
Humedad 71%
Precipitaciones 0.00 pul
Espesor de la nieve No disponible.
UV 0 de una escala de 12
Polen .70 de una escala de 12
Calidad del aire No disponible.
Flu Activity No disponible.
METAR KHPN 310856Z 01010KT 10SM CLR 06/M01 A2998 RMK AO2 SLP156 T00561011 58007 $

More Conditions Fewer Conditions

Presión 29.99 pul
Visibilidad 10.0 Millas
Nubes Despejado
Vientos helados 41 ° F
Punto de rocío 34 ° F
Humedad 71%
Precipitaciones 0.00 pul
Espesor de la nieve No disponible.
UV 0 de una escala de 12
Polen .70 de una escala de 12
Calidad del aire No disponible.
Flu Activity No disponible.
METAR KHPN 310856Z 01010KT 10SM CLR 06/M01 A2998 RMK AO2 SLP156 T00561011 58007 $

More Conditions Fewer Conditions

10-Day Weather Forecast

Almanac

Astronomía

Oct. 31, 2014 Salida Puesta
Hora real
Crepúsculo civil
Crepúsculo náutico
Crepúsculo astronómico
Luna
Horas de luz
Horas de luz
Tomorrow will be .
, % of the Moon is Illuminated

Extremos de hoy

Máximos del estado Bajos del estado

Community

WunderPhotos

Upload Photos

1,766,577 ¡fotos cargadas!

WunderBlogs® & News

Nearby

Calidad del aire

  Calidad del aire Índice AQ Contaminante
Not available.

Grosos de nieve

Estación Profundido Altura

Actividad de terremotos

Ciudad Distance Mag. Tiempo y dato
Magnitud mínima muestra es 2,5.

Temperaturas de aguas costeras

Lugar Temperatura

Estaciones meteorológicas cercanas